Accueil
METAR-TAF:

METAR-TAF

Aéroports :

Kunming, Chine

Aéroport international de Kunming Changshui

latitude: 25-01N, longitude: 102-41E, altitude: 1892 m

Observation

Le bulletin a été fait il y a 1 heure et 11 minutes, à 23:00 UTC
Vent 12 kt de nord-est
Température 3°C
Humidité 100%
Pression 1025 hPa
Visibilité: 0900 m
Nuages fragmentés à une hauteur de 200 ft
Ciel couvert à une hauteur de 3000 ft
brouillard

METAR: ZPPP 222300Z 04006MPS 0900 R04/P2000 R03/0800U FG BKN002 OVC030 03/03 Q1025 NOSIG

Heure: 08:11 (00:11 UTC)

Prévision

Le bulletin a été fait il y a 4 heures et 59 minutes, à 19:12 UTC
Prévision valable du 23 à 00 UTC au 23 à 24 UTC
Vent 12 kt de nord-est
Visibilité: 0900 m
Nuages fragmentés à une hauteur de 200 ft
Ciel couvert à une hauteur de 2000 ft
brouillard

TAF: ZPPP 221912Z 2300/2324 04006MPS 0900 FG BKN002 OVC020 TX03/2306Z TN01/2323Z

Observations et prévisions météorologiques de plus de 4000 aéroports (messages METAR et TAF).

Les stations disponibles sont représentées par des disques jaunes et rouges sur la carte.

Passer la souris dessus pour voir le nom de la station.

Cliquer dessus pour voir les observations et prévisions météorologiques.

Pour changer de carte: cliquez sur les boutons verts avec une croix noire pour zoomer, sur le bouton vert avec un tiret pour effectuer un zoom arrière, ou sur les flèches vertes pour les cartes adjacentes.


METAR-TAF: